createdAt,value
2023-01-29T00:00:10.414Z,4.73
2023-01-29T00:02:38.424Z,4.97
2023-01-29T00:05:25.938Z,5.00
2023-01-29T00:07:57.013Z,5.06
2023-01-29T00:10:25.375Z,5.08
2023-01-29T00:12:53.173Z,5.05
2023-01-29T00:15:21.560Z,4.95
2023-01-29T00:17:49.376Z,4.97
2023-01-29T00:20:18.406Z,4.82
2023-01-29T00:22:46.504Z,4.87
2023-01-29T00:25:15.768Z,4.87
2023-01-29T00:27:43.763Z,4.99
2023-01-29T00:30:16.488Z,4.52
2023-01-29T00:32:44.455Z,4.69
2023-01-29T00:35:13.344Z,4.72
2023-01-29T00:37:41.329Z,4.72
2023-01-29T00:40:11.359Z,4.82
2023-01-29T00:42:58.008Z,4.94
2023-01-29T00:45:25.923Z,4.71
2023-01-29T00:47:53.652Z,4.87
2023-01-29T00:50:23.390Z,4.47
2023-01-29T00:52:51.804Z,4.60
2023-01-29T00:55:19.904Z,4.67
2023-01-29T00:57:49.884Z,4.61
2023-01-29T01:00:20.359Z,4.45
2023-01-29T01:03:05.802Z,4.48
2023-01-29T01:05:33.637Z,4.42
2023-01-29T01:08:01.425Z,4.57
2023-01-29T01:10:31.841Z,4.51
2023-01-29T01:13:04.599Z,4.66
2023-01-29T01:15:36.657Z,4.90
2023-01-29T01:18:05.735Z,4.68
2023-01-29T01:20:37.052Z,5.04
2023-01-29T01:23:05.971Z,5.23
2023-01-29T01:25:34.031Z,5.36
2023-01-29T01:28:03.363Z,5.39
2023-01-29T01:30:33.037Z,5.27
2023-01-29T01:33:01.568Z,4.94
2023-01-29T01:35:29.393Z,4.51
2023-01-29T01:37:57.172Z,5.11
2023-01-29T01:40:26.866Z,5.16
2023-01-29T01:42:58.638Z,4.72
2023-01-29T01:45:31.835Z,4.68
2023-01-29T01:48:06.678Z,4.89
2023-01-29T01:50:42.673Z,4.91
2023-01-29T01:53:15.421Z,5.17
2023-01-29T01:55:49.365Z,4.99
2023-01-29T01:58:28.993Z,4.98
2023-01-29T02:00:58.790Z,4.64
2023-01-29T02:03:46.932Z,4.94
2023-01-29T02:06:32.365Z,4.88
2023-01-29T02:09:24.399Z,4.64
2023-01-29T02:11:52.825Z,4.94
2023-01-29T02:14:21.200Z,4.90
2023-01-29T02:16:50.621Z,4.91
2023-01-29T02:19:41.129Z,4.97
2023-01-29T02:23:02.715Z,4.91
2023-01-29T02:26:11.421Z,4.64
2023-01-29T02:28:53.638Z,4.56
2023-01-29T02:31:33.820Z,4.65
2023-01-29T02:34:19.030Z,4.65
2023-01-29T02:36:52.872Z,4.82
2023-01-29T02:39:35.366Z,4.94
2023-01-29T02:42:14.493Z,5.06
2023-01-29T02:44:51.974Z,4.92
2023-01-29T02:47:28.803Z,4.81
2023-01-29T02:50:11.466Z,4.78
2023-01-29T02:52:50.597Z,5.00
2023-01-29T02:55:27.887Z,5.19
2023-01-29T02:58:03.778Z,4.94
2023-01-29T03:00:39.829Z,5.15
2023-01-29T03:03:17.530Z,5.03
2023-01-29T03:05:55.974Z,4.90
2023-01-29T03:08:42.809Z,5.00
2023-01-29T03:11:15.145Z,4.91
2023-01-29T03:13:50.632Z,5.09
2023-01-29T03:16:27.788Z,5.13
2023-01-29T03:19:01.702Z,4.72
2023-01-29T03:21:53.064Z,4.72
2023-01-29T03:24:58.507Z,4.68
2023-01-29T03:27:50.405Z,4.98
2023-01-29T03:30:39.485Z,4.53
2023-01-29T03:33:12.610Z,4.63
2023-01-29T03:35:51.955Z,4.96
2023-01-29T03:38:21.329Z,5.10
2023-01-29T03:40:56.042Z,5.26
2023-01-29T03:43:36.608Z,5.05
2023-01-29T03:46:18.379Z,5.00
2023-01-29T03:48:59.173Z,5.06
2023-01-29T03:51:34.457Z,5.10
2023-01-29T03:54:13.456Z,5.00
2023-01-29T03:56:58.627Z,5.10
2023-01-29T03:59:41.038Z,5.04
2023-01-29T04:02:19.231Z,4.77
2023-01-29T04:04:53.111Z,5.01
2023-01-29T04:07:24.778Z,4.82
2023-01-29T04:09:59.298Z,4.73
2023-01-29T04:12:34.183Z,4.81
2023-01-29T04:15:03.362Z,4.76
2023-01-29T04:17:37.949Z,4.73
2023-01-29T04:20:08.696Z,4.93
2023-01-29T04:22:38.267Z,4.89
2023-01-29T04:25:15.896Z,4.49
2023-01-29T04:27:54.535Z,4.53
2023-01-29T04:30:39.744Z,4.84
2023-01-29T04:33:23.410Z,4.35
2023-01-29T04:36:24.493Z,4.64
2023-01-29T04:39:07.506Z,4.51
2023-01-29T04:41:46.307Z,4.56
2023-01-29T04:44:24.505Z,4.37
2023-01-29T04:47:05.072Z,4.61
2023-01-29T04:49:44.079Z,4.43
2023-01-29T04:52:25.272Z,4.50
2023-01-29T04:55:07.273Z,4.62
2023-01-29T04:57:46.100Z,4.79
2023-01-29T05:00:21.306Z,4.86
2023-01-29T05:02:50.773Z,4.57
2023-01-29T05:05:22.206Z,4.65
2023-01-29T05:07:52.108Z,4.90
2023-01-29T05:10:24.034Z,4.59
2023-01-29T05:13:01.059Z,4.88
2023-01-29T05:15:37.825Z,4.63
2023-01-29T05:18:08.768Z,4.64
2023-01-29T05:20:41.259Z,4.57
2023-01-29T05:23:18.586Z,4.73
2023-01-29T05:25:47.984Z,4.66
2023-01-29T05:28:16.637Z,4.48
2023-01-29T05:30:47.196Z,4.39
2023-01-29T05:33:18.300Z,4.48
2023-01-29T05:35:46.592Z,4.43
2023-01-29T05:38:17.210Z,4.64
2023-01-29T05:40:45.512Z,4.54
2023-01-29T05:43:18.529Z,4.40
2023-01-29T05:45:54.998Z,4.58
2023-01-29T05:48:23.355Z,4.53
2023-01-29T05:50:51.542Z,4.45
2023-01-29T05:53:20.915Z,4.35
2023-01-29T05:55:49.455Z,4.39
2023-01-29T05:58:19.575Z,4.33
2023-01-29T06:00:47.445Z,4.38
2023-01-29T06:03:15.479Z,4.19
2023-01-29T06:05:43.605Z,4.23
2023-01-29T06:08:11.406Z,4.47
2023-01-29T06:10:40.609Z,4.61
2023-01-29T06:13:08.426Z,4.47
2023-01-29T06:15:36.199Z,4.65
2023-01-29T06:18:04.043Z,4.57
2023-01-29T06:20:31.819Z,4.36
2023-01-29T06:22:59.781Z,4.60
2023-01-29T06:25:27.641Z,4.36
2023-01-29T06:27:59.392Z,4.45
2023-01-29T06:30:28.341Z,4.40
2023-01-29T06:32:58.715Z,4.52
2023-01-29T06:35:26.616Z,4.83
2023-01-29T06:37:54.454Z,4.34
2023-01-29T06:40:22.243Z,4.66
2023-01-29T06:42:50.039Z,4.40
2023-01-29T06:45:19.407Z,4.35
2023-01-29T06:47:47.198Z,4.38
2023-01-29T06:50:15.369Z,4.40
2023-01-29T06:52:43.484Z,4.47
2023-01-29T06:55:12.038Z,4.23
2023-01-29T06:57:39.858Z,4.54
2023-01-29T07:00:10.129Z,4.43
2023-01-29T07:02:39.451Z,4.44
2023-01-29T07:05:07.992Z,4.41
2023-01-29T07:07:37.368Z,4.59
2023-01-29T07:10:06.518Z,4.42
2023-01-29T07:12:34.573Z,4.46
2023-01-29T07:15:02.352Z,4.45
2023-01-29T07:17:30.117Z,4.47
2023-01-29T07:19:59.259Z,4.64
2023-01-29T07:22:27.023Z,4.43
2023-01-29T07:24:54.834Z,4.26
2023-01-29T07:27:22.589Z,4.25
2023-01-29T07:29:50.467Z,4.25
2023-01-29T07:32:18.311Z,4.21
2023-01-29T07:34:46.271Z,4.28
2023-01-29T07:37:15.460Z,4.30
2023-01-29T07:39:43.443Z,4.36
2023-01-29T07:42:11.479Z,4.15
2023-01-29T07:44:39.274Z,4.27
2023-01-29T07:47:07.059Z,4.14
2023-01-29T07:49:35.004Z,4.26
2023-01-29T07:52:02.834Z,4.15
2023-01-29T07:54:32.611Z,4.26
2023-01-29T07:57:00.436Z,4.23
2023-01-29T07:59:28.208Z,4.22
2023-01-29T08:01:56.270Z,4.42
2023-01-29T08:04:24.159Z,4.38
2023-01-29T08:06:52.031Z,4.44
2023-01-29T08:09:19.903Z,4.01
2023-01-29T08:11:49.159Z,4.19
2023-01-29T08:14:33.254Z,4.25
2023-01-29T08:17:12.502Z,4.29
2023-01-29T08:19:40.575Z,4.26
2023-01-29T08:22:08.571Z,4.00
2023-01-29T08:24:47.927Z,4.29
2023-01-29T08:27:26.154Z,4.07
2023-01-29T08:29:54.034Z,4.21
2023-01-29T08:32:21.803Z,4.22
2023-01-29T08:34:49.638Z,4.49
2023-01-29T08:37:17.681Z,4.40
2023-01-29T08:39:45.669Z,4.37
2023-01-29T08:42:13.507Z,4.22
2023-01-29T08:44:42.663Z,4.24
2023-01-29T08:47:10.803Z,4.43
2023-01-29T08:49:38.699Z,4.46
2023-01-29T08:52:06.699Z,4.34
2023-01-29T08:54:34.509Z,4.59
2023-01-29T08:57:02.467Z,4.68
2023-01-29T08:59:30.235Z,4.76
2023-01-29T09:01:59.634Z,4.83
2023-01-29T09:04:27.392Z,4.71
2023-01-29T09:06:55.613Z,4.52
2023-01-29T09:09:23.328Z,4.44
2023-01-29T09:11:51.088Z,4.61
2023-01-29T09:14:19.075Z,4.81
2023-01-29T09:16:47.191Z,4.76
2023-01-29T09:19:16.736Z,4.69
2023-01-29T09:21:44.590Z,5.10
2023-01-29T09:24:12.344Z,4.83
2023-01-29T09:26:40.826Z,4.76
2023-01-29T09:29:11.091Z,4.87
2023-01-29T09:31:38.951Z,4.68
2023-01-29T09:34:06.859Z,5.09
2023-01-29T09:36:36.011Z,4.99
2023-01-29T09:39:03.744Z,4.83
2023-01-29T09:41:51.506Z,4.98
2023-01-29T09:44:30.043Z,4.94
2023-01-29T09:47:00.181Z,4.85
2023-01-29T09:49:37.896Z,4.98
2023-01-29T09:52:16.071Z,4.90
2023-01-29T09:54:58.531Z,4.64
2023-01-29T09:57:35.793Z,4.84
2023-01-29T10:00:03.520Z,4.78
2023-01-29T10:03:15.207Z,4.91
2023-01-29T10:06:06.321Z,4.88
2023-01-29T10:09:25.519Z,4.87
2023-01-29T10:12:10.525Z,4.72
2023-01-29T10:15:01.091Z,4.84
2023-01-29T10:18:01.254Z,4.52
2023-01-29T10:21:04.628Z,4.81
2023-01-29T10:23:37.627Z,5.10
2023-01-29T10:26:13.817Z,4.91
2023-01-29T10:28:46.311Z,5.18
2023-01-29T10:31:25.419Z,5.05
2023-01-29T10:34:08.326Z,4.97
2023-01-29T10:36:43.670Z,5.05
2023-01-29T10:39:19.336Z,4.86
2023-01-29T10:42:19.948Z,5.06
2023-01-29T10:45:16.886Z,5.01
2023-01-29T10:48:38.835Z,4.93
2023-01-29T10:51:23.271Z,5.20
2023-01-29T10:54:14.155Z,5.08
2023-01-29T10:56:59.457Z,5.11
2023-01-29T10:59:54.345Z,4.95
2023-01-29T11:02:22.719Z,4.95
2023-01-29T11:04:50.684Z,5.02
2023-01-29T11:07:23.197Z,5.09
2023-01-29T11:09:59.502Z,5.13
2023-01-29T11:12:33.521Z,5.41
2023-01-29T11:15:17.249Z,5.38
2023-01-29T11:18:10.596Z,5.49
2023-01-29T11:20:38.568Z,5.59
2023-01-29T11:23:07.637Z,5.59
2023-01-29T11:25:35.909Z,5.55
2023-01-29T11:28:06.047Z,5.43
2023-01-29T11:30:39.157Z,5.46
2023-01-29T11:33:13.010Z,5.24
2023-01-29T11:35:40.773Z,5.18
2023-01-29T11:38:21.173Z,5.42
2023-01-29T11:40:51.380Z,5.36
2023-01-29T11:43:30.513Z,5.37
2023-01-29T11:46:05.055Z,5.16
2023-01-29T11:48:45.795Z,5.17
2023-01-29T11:51:24.788Z,5.07
2023-01-29T11:53:57.882Z,5.28
2023-01-29T11:56:31.152Z,5.23
2023-01-29T11:59:02.263Z,5.28
2023-01-29T12:01:39.031Z,5.25
2023-01-29T12:04:20.083Z,5.15
2023-01-29T12:06:52.660Z,5.09
2023-01-29T12:09:27.273Z,5.17
2023-01-29T12:11:55.510Z,5.25
2023-01-29T12:14:33.423Z,5.42
2023-01-29T12:17:09.262Z,4.89
2023-01-29T12:19:45.230Z,5.35
2023-01-29T12:22:23.471Z,5.14
2023-01-29T12:24:58.539Z,5.27
2023-01-29T12:27:37.105Z,4.98
2023-01-29T12:30:16.498Z,4.96
2023-01-29T12:32:55.495Z,4.86
2023-01-29T12:35:30.578Z,4.97
2023-01-29T12:38:04.662Z,4.98
2023-01-29T12:40:41.199Z,4.88
2023-01-29T12:43:17.688Z,4.92
2023-01-29T12:45:52.246Z,5.32
2023-01-29T12:48:28.717Z,5.03
2023-01-29T12:51:04.811Z,4.90
2023-01-29T12:53:42.463Z,5.06
2023-01-29T12:56:19.144Z,5.17
2023-01-29T12:58:52.155Z,4.90
2023-01-29T13:01:31.148Z,5.21
2023-01-29T13:04:07.906Z,4.98
2023-01-29T13:06:42.587Z,5.15
2023-01-29T13:09:18.035Z,5.40
2023-01-29T13:11:54.337Z,4.98
2023-01-29T13:14:29.515Z,5.30
2023-01-29T13:17:10.918Z,5.07
2023-01-29T13:19:46.502Z,5.49
2023-01-29T13:22:25.813Z,5.10
2023-01-29T13:25:04.203Z,5.22
2023-01-29T13:27:36.486Z,5.25
2023-01-29T13:30:06.344Z,5.45
2023-01-29T13:32:37.077Z,5.36
2023-01-29T13:35:15.514Z,5.43
2023-01-29T13:37:51.051Z,5.35
2023-01-29T13:40:26.707Z,5.04
2023-01-29T13:42:59.889Z,5.25
2023-01-29T13:45:43.170Z,5.23
2023-01-29T13:48:22.747Z,5.05
2023-01-29T13:50:54.851Z,5.14
2023-01-29T13:53:28.427Z,5.10
2023-01-29T13:55:56.555Z,5.28
2023-01-29T13:58:55.299Z,5.34
2023-01-29T14:02:04.743Z,5.20
2023-01-29T14:04:34.108Z,5.24
2023-01-29T14:07:23.761Z,5.36
2023-01-29T14:10:17.809Z,5.33
2023-01-29T14:12:54.456Z,5.38
2023-01-29T14:15:29.866Z,5.50
2023-01-29T14:18:20.601Z,5.33
2023-01-29T14:21:04.887Z,5.38
2023-01-29T14:23:42.527Z,5.22
2023-01-29T14:26:25.247Z,5.15
2023-01-29T14:28:59.577Z,5.33
2023-01-29T14:31:38.280Z,5.29
2023-01-29T14:34:15.667Z,5.29
2023-01-29T14:36:47.159Z,5.59
2023-01-29T14:39:42.457Z,5.55
2023-01-29T14:42:24.567Z,5.64
2023-01-29T14:45:12.290Z,5.68
2023-01-29T14:48:06.757Z,5.53
2023-01-29T14:50:49.987Z,5.75
2023-01-29T14:53:45.177Z,5.16
2023-01-29T14:56:19.438Z,5.51
2023-01-29T14:58:53.222Z,5.45
2023-01-29T15:01:31.749Z,5.34
2023-01-29T15:04:04.971Z,5.33
2023-01-29T15:06:42.748Z,5.30
2023-01-29T15:09:18.259Z,5.37
2023-01-29T15:11:59.405Z,5.38
2023-01-29T15:14:36.381Z,5.38
2023-01-29T15:17:19.893Z,5.34
2023-01-29T15:19:50.163Z,5.36
2023-01-29T15:22:20.374Z,5.21
2023-01-29T15:25:03.953Z,5.40
2023-01-29T15:27:33.199Z,5.31
2023-01-29T15:30:08.023Z,5.46
2023-01-29T15:32:40.010Z,5.49
2023-01-29T15:35:27.838Z,5.34
2023-01-29T15:38:05.502Z,5.36
2023-01-29T15:40:34.243Z,5.52
2023-01-29T15:43:03.388Z,5.30
2023-01-29T15:45:34.010Z,5.17
2023-01-29T15:48:08.543Z,5.13
2023-01-29T15:50:42.741Z,5.29
2023-01-29T15:53:20.952Z,5.30
2023-01-29T15:55:51.536Z,5.10
2023-01-29T15:58:30.778Z,5.18
2023-01-29T16:01:02.166Z,5.16
2023-01-29T16:03:35.025Z,5.19
2023-01-29T16:06:03.750Z,5.37
2023-01-29T16:08:31.674Z,5.26
2023-01-29T16:11:03.210Z,5.03
2023-01-29T16:13:36.962Z,5.13
2023-01-29T16:16:17.779Z,5.16
2023-01-29T16:18:59.639Z,5.20
2023-01-29T16:21:32.990Z,5.04
2023-01-29T16:24:09.523Z,4.97
2023-01-29T16:26:43.074Z,4.97
2023-01-29T16:29:15.727Z,5.21
2023-01-29T16:31:46.787Z,5.12
2023-01-29T16:34:24.306Z,5.09
2023-01-29T16:36:53.545Z,5.02
2023-01-29T16:39:27.023Z,5.04
2023-01-29T16:42:23.150Z,5.05
2023-01-29T16:45:01.965Z,4.96
2023-01-29T16:47:34.809Z,4.88
2023-01-29T16:50:27.708Z,5.07
2023-01-29T16:52:58.970Z,5.14
2023-01-29T16:55:27.289Z,4.96
2023-01-29T16:57:57.158Z,4.95
2023-01-29T17:00:29.537Z,4.67
2023-01-29T17:03:05.736Z,4.81
2023-01-29T17:05:37.997Z,4.66
2023-01-29T17:08:07.998Z,4.66
2023-01-29T17:10:36.839Z,4.64
2023-01-29T17:13:10.240Z,4.82
2023-01-29T17:15:47.733Z,4.73
2023-01-29T17:18:21.359Z,4.79
2023-01-29T17:20:50.038Z,4.79
2023-01-29T17:23:18.352Z,4.88
2023-01-29T17:25:47.099Z,4.72
2023-01-29T17:28:17.883Z,4.79
2023-01-29T17:31:00.264Z,4.72
2023-01-29T17:33:33.426Z,4.59
2023-01-29T17:36:01.231Z,4.39
2023-01-29T17:38:29.134Z,4.51
2023-01-29T17:41:03.166Z,4.42
2023-01-29T17:43:31.078Z,4.67
2023-01-29T17:46:00.206Z,4.60
2023-01-29T17:48:31.246Z,4.46
2023-01-29T17:51:03.018Z,4.51
2023-01-29T17:53:45.268Z,4.52
2023-01-29T17:56:18.045Z,4.59
2023-01-29T17:58:45.942Z,4.74
2023-01-29T18:01:15.100Z,4.72
2023-01-29T18:03:43.026Z,4.74
2023-01-29T18:06:20.071Z,4.71
2023-01-29T18:08:47.848Z,4.63
2023-01-29T18:11:15.733Z,4.79
2023-01-29T18:13:43.803Z,4.60
2023-01-29T18:16:11.672Z,4.60
2023-01-29T18:18:41.107Z,4.50
2023-01-29T18:21:08.965Z,4.72
2023-01-29T18:23:36.769Z,4.67
2023-01-29T18:26:04.995Z,4.65
2023-01-29T18:28:33.005Z,4.78
2023-01-29T18:31:02.838Z,4.84
2023-01-29T18:33:31.265Z,4.76
2023-01-29T18:36:00.761Z,4.83
2023-01-29T18:38:28.848Z,4.66
2023-01-29T18:41:05.315Z,4.50
2023-01-29T18:43:33.396Z,4.72
2023-01-29T18:46:01.541Z,4.82
2023-01-29T18:48:30.343Z,4.77
2023-01-29T18:50:59.749Z,5.00
2023-01-29T18:53:28.098Z,5.16
2023-01-29T18:56:00.156Z,5.00
2023-01-29T18:58:36.904Z,5.09
2023-01-29T19:01:09.299Z,5.28
2023-01-29T19:03:38.036Z,5.00
2023-01-29T19:06:10.333Z,5.30
2023-01-29T19:08:38.588Z,4.87
2023-01-29T19:11:08.844Z,4.84
2023-01-29T19:13:37.943Z,4.92
2023-01-29T19:16:09.666Z,4.87
2023-01-29T19:18:37.493Z,4.93
2023-01-29T19:21:11.046Z,5.00
2023-01-29T19:23:39.085Z,4.89
2023-01-29T19:26:07.465Z,5.10
2023-01-29T19:28:35.650Z,4.96
2023-01-29T19:31:03.828Z,4.79
2023-01-29T19:33:32.095Z,4.83
2023-01-29T19:36:03.066Z,4.81
2023-01-29T19:38:33.621Z,4.79
2023-01-29T19:41:02.024Z,4.82
2023-01-29T19:43:31.659Z,4.66
2023-01-29T19:46:01.801Z,4.79
2023-01-29T19:48:30.088Z,4.81
2023-01-29T19:51:01.241Z,5.07
2023-01-29T19:53:30.565Z,4.78
2023-01-29T19:56:04.699Z,5.00
2023-01-29T19:58:33.214Z,4.92
2023-01-29T20:01:03.976Z,5.08
2023-01-29T20:03:32.255Z,5.11
2023-01-29T20:06:04.208Z,5.07
2023-01-29T20:08:33.173Z,5.04
2023-01-29T20:11:02.789Z,5.04
2023-01-29T20:13:50.396Z,5.21
2023-01-29T20:16:25.810Z,5.08
2023-01-29T20:18:55.966Z,4.81
2023-01-29T20:21:45.395Z,5.05
2023-01-29T20:24:14.324Z,4.81
2023-01-29T20:26:43.687Z,4.80
2023-01-29T20:29:11.546Z,5.17
2023-01-29T20:31:39.581Z,5.16
2023-01-29T20:34:07.615Z,5.08
2023-01-29T20:36:35.323Z,4.86
2023-01-29T20:39:03.206Z,5.26
2023-01-29T20:41:31.052Z,5.20
2023-01-29T20:44:00.136Z,5.04
2023-01-29T20:46:28.173Z,5.23
2023-01-29T20:48:56.601Z,5.39
2023-01-29T20:51:24.756Z,5.21
2023-01-29T20:53:52.900Z,5.37
2023-01-29T20:56:32.107Z,5.50
2023-01-29T20:59:09.995Z,5.24
2023-01-29T21:01:38.007Z,5.40
2023-01-29T21:04:08.265Z,5.40
2023-01-29T21:06:36.378Z,5.59
2023-01-29T21:09:04.318Z,5.46
2023-01-29T21:11:33.374Z,5.50
2023-01-29T21:14:02.054Z,5.59
2023-01-29T21:16:31.319Z,5.38
2023-01-29T21:19:00.464Z,5.61
2023-01-29T21:21:28.339Z,5.25
2023-01-29T21:23:56.140Z,5.64
2023-01-29T21:26:24.455Z,5.31
2023-01-29T21:28:52.469Z,5.71
2023-01-29T21:31:20.361Z,5.63
2023-01-29T21:33:49.609Z,5.51
2023-01-29T21:36:17.627Z,5.50
2023-01-29T21:38:45.639Z,5.66
2023-01-29T21:41:13.957Z,5.42
2023-01-29T21:43:41.388Z,5.49
2023-01-29T21:46:12.459Z,5.51
2023-01-29T21:48:41.738Z,5.62
2023-01-29T21:51:10.955Z,5.85
2023-01-29T21:53:38.710Z,5.68
2023-01-29T21:56:07.690Z,5.79
2023-01-29T21:58:35.653Z,5.95
2023-01-29T22:01:22.864Z,5.84
2023-01-29T22:03:51.868Z,5.92
2023-01-29T22:06:21.503Z,5.97
2023-01-29T22:08:55.478Z,5.94
2023-01-29T22:11:23.797Z,5.97
2023-01-29T22:13:51.692Z,6.01
2023-01-29T22:16:25.655Z,5.91
2023-01-29T22:18:53.420Z,5.86
2023-01-29T22:21:22.651Z,5.68
2023-01-29T22:23:50.582Z,5.74
2023-01-29T22:26:18.839Z,5.81
2023-01-29T22:28:47.026Z,5.72
2023-01-29T22:31:15.081Z,5.65
2023-01-29T22:33:44.015Z,5.77
2023-01-29T22:36:11.835Z,5.54
2023-01-29T22:38:43.614Z,5.75
2023-01-29T22:41:12.189Z,5.82
2023-01-29T22:43:40.931Z,5.58
2023-01-29T22:46:09.545Z,5.65
2023-01-29T22:48:37.530Z,5.83
2023-01-29T22:51:11.696Z,5.88
2023-01-29T22:53:43.159Z,5.94
2023-01-29T22:56:12.653Z,5.52
2023-01-29T22:58:41.108Z,5.83
2023-01-29T23:01:09.995Z,5.84
2023-01-29T23:03:38.339Z,5.73
2023-01-29T23:06:06.529Z,5.77
2023-01-29T23:08:34.866Z,5.71
2023-01-29T23:11:14.979Z,5.80
2023-01-29T23:13:44.863Z,5.45
2023-01-29T23:16:13.691Z,5.74
2023-01-29T23:18:42.346Z,5.92
2023-01-29T23:21:11.616Z,6.00
2023-01-29T23:23:40.258Z,5.67
2023-01-29T23:26:44.909Z,5.74
2023-01-29T23:29:14.846Z,5.87
2023-01-29T23:31:42.728Z,5.71
2023-01-29T23:34:11.180Z,5.69
2023-01-29T23:36:39.008Z,5.84
2023-01-29T23:39:07.206Z,5.71
2023-01-29T23:41:37.709Z,5.93
2023-01-29T23:44:06.253Z,6.09
2023-01-29T23:46:34.342Z,5.91
2023-01-29T23:49:02.907Z,6.04
2023-01-29T23:51:30.937Z,6.29
2023-01-29T23:53:58.888Z,6.38
2023-01-29T23:56:26.944Z,6.21
2023-01-29T23:58:57.448Z,6.20
